createdAt,value
2019-03-18T00:00:41.827Z,64.50
2019-03-18T00:05:32.743Z,64.90
2019-03-18T00:10:23.637Z,65.40
2019-03-18T00:15:14.529Z,65.70
2019-03-18T00:20:05.410Z,65.90
2019-03-18T00:24:56.308Z,65.70
2019-03-18T00:29:47.202Z,65.50
2019-03-18T00:34:38.865Z,64.50
2019-03-18T00:39:29.763Z,64.40
2019-03-18T00:44:20.659Z,64.90
2019-03-18T00:49:12.293Z,65.70
2019-03-18T00:54:03.180Z,65.60
2019-03-18T00:58:54.084Z,65.80
2019-03-18T01:03:44.983Z,66.00
2019-03-18T01:08:35.879Z,66.10
2019-03-18T01:13:27.509Z,64.40
2019-03-18T01:18:19.135Z,64.60
2019-03-18T01:23:10.028Z,64.60
2019-03-18T01:28:00.942Z,65.50
2019-03-18T01:32:51.850Z,65.40
2019-03-18T01:37:42.726Z,65.60
2019-03-18T01:42:34.369Z,66.40
2019-03-18T01:47:25.275Z,66.30
2019-03-18T01:52:17.594Z,64.50
2019-03-18T01:57:08.488Z,64.40
2019-03-18T02:01:59.403Z,64.40
2019-03-18T02:06:50.309Z,64.80
2019-03-18T02:11:41.253Z,65.30
2019-03-18T02:16:32.157Z,65.60
2019-03-18T02:21:23.154Z,65.60
2019-03-18T02:26:14.021Z,65.70
2019-03-18T02:31:04.914Z,65.80
2019-03-18T02:35:55.834Z,64.90
2019-03-18T02:40:46.777Z,64.20
2019-03-18T02:45:37.690Z,64.50
2019-03-18T02:50:28.597Z,65.00
2019-03-18T02:55:19.497Z,65.30
2019-03-18T03:00:10.396Z,66.20
2019-03-18T03:05:01.332Z,65.80
2019-03-18T03:09:52.320Z,66.10
2019-03-18T03:14:43.960Z,64.40
2019-03-18T03:19:35.628Z,64.30
2019-03-18T03:24:26.521Z,64.20
2019-03-18T03:29:18.184Z,65.10
2019-03-18T03:34:13.325Z,65.10
2019-03-18T03:39:00.040Z,65.50
2019-03-18T03:43:50.985Z,65.70
2019-03-18T03:48:41.893Z,65.80
2019-03-18T03:53:32.803Z,66.20
2019-03-18T03:58:23.698Z,65.00
2019-03-18T04:03:14.613Z,64.10
2019-03-18T04:08:05.537Z,64.30
2019-03-18T04:12:56.441Z,64.70
2019-03-18T04:17:47.334Z,65.10
2019-03-18T04:22:38.993Z,65.80
2019-03-18T04:27:29.915Z,65.70
2019-03-18T04:32:20.837Z,65.80
2019-03-18T04:37:11.794Z,66.20
2019-03-18T04:42:02.676Z,64.80
2019-03-18T04:46:53.634Z,64.20
2019-03-18T04:51:44.556Z,64.60
2019-03-18T04:56:35.457Z,65.10
2019-03-18T05:01:26.405Z,65.60
2019-03-18T05:06:17.354Z,66.00
2019-03-18T05:11:09.004Z,66.30
2019-03-18T05:15:59.925Z,66.30
2019-03-18T05:20:50.870Z,66.40
2019-03-18T05:25:41.779Z,65.10
2019-03-18T05:30:32.687Z,64.50
2019-03-18T05:35:23.598Z,64.90
2019-03-18T05:40:14.500Z,65.30
2019-03-18T05:45:05.406Z,65.80
2019-03-18T05:49:57.068Z,66.20
2019-03-18T05:54:47.980Z,66.20
2019-03-18T05:59:38.903Z,66.40
2019-03-18T06:04:29.813Z,65.50
2019-03-18T06:09:21.465Z,64.60
2019-03-18T06:14:12.386Z,64.60
2019-03-18T06:19:03.295Z,65.00
2019-03-18T06:23:54.204Z,65.30
2019-03-18T06:28:45.119Z,65.60
2019-03-18T06:33:36.765Z,66.10
2019-03-18T06:38:27.678Z,66.00
2019-03-18T06:43:18.573Z,66.30
2019-03-18T06:48:09.497Z,65.00
2019-03-18T06:53:00.385Z,64.80
2019-03-18T06:57:51.310Z,64.30
2019-03-18T07:02:42.227Z,64.80
2019-03-18T07:07:33.125Z,65.20
2019-03-18T07:12:24.039Z,65.30
2019-03-18T07:17:14.938Z,65.60
2019-03-18T07:22:05.838Z,65.80
2019-03-18T07:26:57.503Z,64.50
2019-03-18T07:31:48.424Z,64.50
2019-03-18T07:36:39.366Z,63.80
2019-03-18T07:41:30.279Z,64.20
2019-03-18T07:46:21.200Z,64.70
2019-03-18T07:51:12.128Z,65.30
2019-03-18T07:56:03.028Z,65.00
2019-03-18T08:00:53.973Z,65.10
2019-03-18T08:05:46.367Z,64.60
2019-03-18T08:10:37.264Z,64.60
2019-03-18T08:15:28.913Z,64.10
2019-03-18T08:20:20.564Z,63.90
2019-03-18T08:25:11.463Z,64.00
2019-03-18T08:30:04.085Z,64.70
2019-03-18T08:34:54.998Z,64.70
2019-03-18T08:39:45.900Z,64.80
2019-03-18T08:44:36.820Z,65.10
2019-03-18T08:49:27.726Z,64.80
2019-03-18T08:54:18.638Z,63.60
2019-03-18T08:59:09.537Z,63.10
2019-03-18T09:04:01.187Z,63.60
2019-03-18T09:08:52.099Z,63.60
2019-03-18T09:13:42.993Z,63.80
2019-03-18T09:18:33.889Z,64.30
2019-03-18T09:23:24.875Z,64.50
2019-03-18T09:28:16.507Z,64.50
2019-03-18T09:33:07.430Z,64.00
2019-03-18T09:37:58.340Z,63.20
2019-03-18T09:42:49.263Z,63.60
2019-03-18T09:47:40.156Z,64.10
2019-03-18T09:52:31.811Z,64.30
2019-03-18T09:57:26.266Z,64.20
2019-03-18T10:02:13.653Z,63.90
2019-03-18T10:07:04.574Z,64.20
2019-03-18T10:11:55.468Z,62.90
2019-03-18T10:16:47.117Z,62.70
2019-03-18T10:21:38.064Z,62.70
2019-03-18T10:26:28.960Z,63.00
2019-03-18T10:31:19.873Z,63.10
2019-03-18T10:36:10.769Z,63.20
2019-03-18T10:41:02.411Z,63.60
2019-03-18T10:45:53.327Z,63.50
2019-03-18T10:50:44.987Z,62.10
2019-03-18T10:55:35.894Z,62.10
2019-03-18T11:00:26.797Z,62.30
2019-03-18T11:05:18.462Z,63.00
2019-03-18T11:10:12.388Z,63.00
2019-03-18T11:15:00.362Z,63.10
2019-03-18T11:19:58.462Z,63.20
2019-03-18T11:24:42.925Z,61.80
2019-03-18T11:29:34.575Z,62.00
2019-03-18T11:34:25.481Z,62.00
2019-03-18T11:39:17.131Z,62.70
2019-03-18T11:44:08.798Z,62.70
2019-03-18T11:48:59.710Z,62.70
2019-03-18T11:53:50.613Z,62.60
2019-03-18T11:58:48.537Z,62.90
2019-03-18T12:03:39.452Z,61.70
2019-03-18T12:08:30.352Z,61.60
2019-03-18T12:13:21.310Z,62.10
2019-03-18T12:18:12.247Z,61.50
2019-03-18T12:23:03.192Z,62.10
2019-03-18T12:27:54.085Z,62.50
2019-03-18T12:32:45.756Z,60.80
2019-03-18T12:37:36.644Z,60.70
2019-03-18T12:42:28.309Z,59.20
2019-03-18T12:47:19.212Z,59.20
2019-03-18T12:52:10.160Z,60.20
2019-03-18T12:57:01.071Z,60.90
2019-03-18T13:01:51.983Z,61.50
2019-03-18T13:06:42.881Z,61.50
2019-03-18T13:11:33.792Z,61.50
2019-03-18T13:16:25.438Z,59.80
2019-03-18T13:21:17.106Z,59.90
2019-03-18T13:26:08.005Z,59.90
2019-03-18T13:30:58.923Z,59.50
2019-03-18T13:35:49.859Z,58.90
2019-03-18T13:40:40.775Z,58.60
2019-03-18T13:45:31.687Z,57.70
2019-03-18T13:50:22.604Z,57.80
2019-03-18T13:55:13.540Z,58.40
2019-03-18T14:00:15.077Z,59.00
2019-03-18T14:05:05.982Z,59.40
2019-03-18T14:09:57.642Z,59.30
2019-03-18T14:14:48.551Z,59.30
2019-03-18T14:19:39.552Z,58.90
2019-03-18T14:24:31.230Z,59.90
2019-03-18T14:29:22.203Z,59.90
2019-03-18T14:34:13.934Z,59.90
2019-03-18T14:39:04.856Z,59.90
2019-03-18T14:43:56.568Z,59.10
2019-03-18T14:48:49.044Z,58.50
2019-03-18T14:53:39.902Z,58.50
2019-03-18T14:58:30.819Z,58.70
2019-03-18T15:03:21.756Z,59.30
2019-03-18T15:08:12.649Z,59.70
2019-03-18T15:13:04.400Z,59.80
2019-03-18T15:17:55.328Z,59.80
2019-03-18T15:22:46.248Z,59.30
2019-03-18T15:27:37.146Z,58.20
2019-03-18T15:32:28.127Z,58.80
2019-03-18T15:37:19.052Z,60.70
2019-03-18T15:42:10.712Z,61.90
2019-03-18T15:47:01.643Z,61.90
2019-03-18T15:51:52.545Z,62.20
2019-03-18T15:56:44.199Z,59.40
2019-03-18T16:01:35.110Z,59.50
2019-03-18T16:06:26.024Z,60.60
2019-03-18T16:11:16.931Z,60.90
2019-03-18T16:16:08.587Z,61.60
2019-03-18T16:20:59.484Z,61.60
2019-03-18T16:25:51.152Z,61.50
2019-03-18T16:30:42.061Z,61.40
2019-03-18T16:35:32.978Z,60.70
2019-03-18T16:40:23.872Z,60.90
2019-03-18T16:45:15.512Z,61.80
2019-03-18T16:50:18.289Z,61.80
2019-03-18T16:55:09.215Z,62.10
2019-03-18T17:00:00.862Z,62.70
2019-03-18T17:04:52.519Z,61.70
2019-03-18T17:09:43.439Z,61.70
2019-03-18T17:14:34.362Z,61.60
2019-03-18T17:19:25.286Z,62.40
2019-03-18T17:24:16.199Z,63.10
2019-03-18T17:29:07.232Z,63.70
2019-03-18T17:33:58.159Z,63.90
2019-03-18T17:38:49.061Z,64.20
2019-03-18T17:43:39.973Z,63.10
2019-03-18T17:48:30.887Z,62.30
2019-03-18T17:53:21.786Z,62.50
2019-03-18T17:58:13.421Z,63.50
2019-03-18T18:03:05.097Z,63.60
2019-03-18T18:07:56.015Z,63.60
2019-03-18T18:12:46.928Z,63.70
2019-03-18T18:17:37.824Z,63.90
2019-03-18T18:22:28.725Z,62.70
2019-03-18T18:27:20.364Z,62.70
2019-03-18T18:32:12.011Z,63.20
2019-03-18T18:37:02.919Z,63.20
2019-03-18T18:41:54.644Z,64.00
2019-03-18T18:46:46.299Z,64.20
2019-03-18T18:51:37.959Z,64.40
2019-03-18T18:56:28.856Z,65.00
2019-03-18T19:01:19.759Z,63.20
2019-03-18T19:06:11.398Z,63.10
2019-03-18T19:11:03.087Z,63.60
2019-03-18T19:15:53.993Z,63.60
2019-03-18T19:20:44.953Z,64.00
2019-03-18T19:25:35.907Z,64.40
2019-03-18T19:30:26.824Z,64.50
2019-03-18T19:35:18.478Z,63.60
2019-03-18T19:40:09.406Z,63.50
2019-03-18T19:45:00.362Z,63.00
2019-03-18T19:49:51.287Z,63.30
2019-03-18T19:54:42.208Z,63.80
2019-03-18T19:59:33.873Z,64.60
2019-03-18T20:04:24.786Z,64.50
2019-03-18T20:09:16.453Z,65.20
2019-03-18T20:14:07.379Z,65.10
2019-03-18T20:18:58.357Z,63.80
2019-03-18T20:24:00.375Z,63.40
2019-03-18T20:28:41.465Z,63.30
2019-03-18T20:33:33.379Z,64.30
2019-03-18T20:38:24.409Z,64.30
2019-03-18T20:43:15.328Z,64.60
2019-03-18T20:48:06.259Z,64.80
2019-03-18T20:52:57.628Z,65.00
2019-03-18T20:57:48.843Z,64.60
2019-03-18T21:02:39.771Z,63.60
2019-03-18T21:07:31.070Z,63.60
2019-03-18T21:12:22.242Z,63.90
2019-03-18T21:17:13.913Z,64.80
2019-03-18T21:22:04.836Z,64.70
2019-03-18T21:26:55.764Z,65.10
2019-03-18T21:31:46.672Z,65.30
2019-03-18T21:36:38.396Z,65.60
2019-03-18T21:41:28.573Z,64.20
2019-03-18T21:46:19.491Z,63.70
2019-03-18T21:51:10.472Z,64.50
2019-03-18T21:56:01.424Z,64.50
2019-03-18T22:00:52.359Z,65.00
2019-03-18T22:05:44.020Z,65.70
2019-03-18T22:10:34.921Z,65.70
2019-03-18T22:15:26.598Z,66.00
2019-03-18T22:20:17.507Z,65.90
2019-03-18T22:25:08.419Z,64.70
2019-03-18T22:29:59.320Z,64.20
2019-03-18T22:34:50.984Z,65.10
2019-03-18T22:39:41.892Z,65.10
2019-03-18T22:44:32.860Z,65.50
2019-03-18T22:49:23.779Z,65.80
2019-03-18T22:54:14.708Z,66.00
2019-03-18T22:59:05.615Z,66.40
2019-03-18T23:03:56.537Z,65.00
2019-03-18T23:08:48.935Z,64.20
2019-03-18T23:13:38.388Z,64.30
2019-03-18T23:18:30.073Z,65.00
2019-03-18T23:23:20.998Z,65.00
2019-03-18T23:28:11.897Z,65.40
2019-03-18T23:33:02.863Z,65.60
2019-03-18T23:37:53.768Z,65.70
2019-03-18T23:42:44.715Z,65.80
2019-03-18T23:47:35.627Z,64.50
2019-03-18T23:52:26.524Z,64.00
2019-03-18T23:57:17.451Z,64.00
